sensor_id;sensor_type;location;lat;lon;timestamp;P1;durP1;ratioP1;P2;durP2;ratioP2
6941;SDS011;3510;43.200;27.920;2023-11-22T00:00:44;4.17;;;3.77;;
6941;SDS011;3510;43.200;27.920;2023-11-22T00:03:10;3.73;;;3.23;;
6941;SDS011;3510;43.200;27.920;2023-11-22T00:05:37;7.80;;;4.27;;
6941;SDS011;3510;43.200;27.920;2023-11-22T00:08:04;4.50;;;3.60;;
6941;SDS011;3510;43.200;27.920;2023-11-22T00:10:31;3.33;;;3.00;;
6941;SDS011;3510;43.200;27.920;2023-11-22T00:13:00;3.70;;;3.40;;
6941;SDS011;3510;43.200;27.920;2023-11-22T00:15:27;4.47;;;4.07;;
6941;SDS011;3510;43.200;27.920;2023-11-22T00:17:57;8.90;;;5.17;;
6941;SDS011;3510;43.200;27.920;2023-11-22T00:20:28;4.57;;;3.73;;
6941;SDS011;3510;43.200;27.920;2023-11-22T00:22:55;12.80;;;4.50;;
6941;SDS011;3510;43.200;27.920;2023-11-22T00:25:22;8.93;;;4.50;;
6941;SDS011;3510;43.200;27.920;2023-11-22T00:27:49;22.90;;;4.23;;
6941;SDS011;3510;43.200;27.920;2023-11-22T00:30:17;5.27;;;3.57;;
6941;SDS011;3510;43.200;27.920;2023-11-22T00:32:44;9.87;;;3.87;;
6941;SDS011;3510;43.200;27.920;2023-11-22T00:35:11;3.63;;;2.93;;
6941;SDS011;3510;43.200;27.920;2023-11-22T00:37:37;4.03;;;3.63;;
6941;SDS011;3510;43.200;27.920;2023-11-22T00:40:04;3.90;;;3.30;;
6941;SDS011;3510;43.200;27.920;2023-11-22T00:42:35;4.33;;;3.70;;
6941;SDS011;3510;43.200;27.920;2023-11-22T00:45:03;4.47;;;3.30;;
6941;SDS011;3510;43.200;27.920;2023-11-22T00:47:32;9.37;;;3.27;;
6941;SDS011;3510;43.200;27.920;2023-11-22T00:49:59;7.30;;;5.07;;
6941;SDS011;3510;43.200;27.920;2023-11-22T00:52:26;8.60;;;3.83;;
6941;SDS011;3510;43.200;27.920;2023-11-22T00:54:53;3.37;;;3.07;;
6941;SDS011;3510;43.200;27.920;2023-11-22T00:57:19;8.33;;;4.17;;
6941;SDS011;3510;43.200;27.920;2023-11-22T00:59:46;8.87;;;3.43;;
6941;SDS011;3510;43.200;27.920;2023-11-22T01:02:13;3.57;;;3.27;;
6941;SDS011;3510;43.200;27.920;2023-11-22T01:04:41;3.00;;;2.80;;
6941;SDS011;3510;43.200;27.920;2023-11-22T01:07:07;3.07;;;2.87;;
6941;SDS011;3510;43.200;27.920;2023-11-22T01:09:34;5.53;;;3.10;;
6941;SDS011;3510;43.200;27.920;2023-11-22T01:12:01;5.77;;;3.13;;
6941;SDS011;3510;43.200;27.920;2023-11-22T01:14:28;5.40;;;3.50;;
6941;SDS011;3510;43.200;27.920;2023-11-22T01:16:55;4.30;;;2.90;;
6941;SDS011;3510;43.200;27.920;2023-11-22T01:19:21;6.00;;;3.53;;
6941;SDS011;3510;43.200;27.920;2023-11-22T01:21:49;4.10;;;3.70;;
6941;SDS011;3510;43.200;27.920;2023-11-22T01:24:16;4.73;;;4.27;;
6941;SDS011;3510;43.200;27.920;2023-11-22T01:26:43;5.50;;;4.20;;
6941;SDS011;3510;43.200;27.920;2023-11-22T01:29:09;4.63;;;4.13;;
6941;SDS011;3510;43.200;27.920;2023-11-22T01:31:37;6.57;;;4.10;;
6941;SDS011;3510;43.200;27.920;2023-11-22T01:34:02;5.10;;;4.60;;
6941;SDS011;3510;43.200;27.920;2023-11-22T01:36:30;8.10;;;5.53;;
6941;SDS011;3510;43.200;27.920;2023-11-22T01:38:58;5.20;;;4.60;;
6941;SDS011;3510;43.200;27.920;2023-11-22T01:41:25;7.03;;;6.00;;
6941;SDS011;3510;43.200;27.920;2023-11-22T01:43:55;6.60;;;4.70;;
6941;SDS011;3510;43.200;27.920;2023-11-22T01:46:24;7.97;;;5.30;;
6941;SDS011;3510;43.200;27.920;2023-11-22T01:48:51;5.57;;;4.67;;
6941;SDS011;3510;43.200;27.920;2023-11-22T01:51:19;10.30;;;7.80;;
6941;SDS011;3510;43.200;27.920;2023-11-22T01:53:46;7.57;;;6.00;;
6941;SDS011;3510;43.200;27.920;2023-11-22T01:56:15;14.60;;;7.53;;
6941;SDS011;3510;43.200;27.920;2023-11-22T01:58:43;6.07;;;5.13;;
6941;SDS011;3510;43.200;27.920;2023-11-22T02:01:10;7.90;;;4.70;;
6941;SDS011;3510;43.200;27.920;2023-11-22T02:03:39;8.53;;;6.57;;
6941;SDS011;3510;43.200;27.920;2023-11-22T02:06:06;5.90;;;5.30;;
6941;SDS011;3510;43.200;27.920;2023-11-22T02:08:34;10.53;;;6.57;;
6941;SDS011;3510;43.200;27.920;2023-11-22T02:11:01;7.67;;;5.77;;
6941;SDS011;3510;43.200;27.920;2023-11-22T02:13:32;9.33;;;5.13;;
6941;SDS011;3510;43.200;27.920;2023-11-22T02:15:59;5.63;;;5.13;;
6941;SDS011;3510;43.200;27.920;2023-11-22T02:18:26;9.77;;;4.53;;
6941;SDS011;3510;43.200;27.920;2023-11-22T02:20:54;4.90;;;4.50;;
6941;SDS011;3510;43.200;27.920;2023-11-22T02:23:22;5.23;;;4.20;;
6941;SDS011;3510;43.200;27.920;2023-11-22T02:25:49;4.17;;;3.87;;
6941;SDS011;3510;43.200;27.920;2023-11-22T02:28:15;5.17;;;4.67;;
6941;SDS011;3510;43.200;27.920;2023-11-22T02:30:43;5.70;;;5.10;;
6941;SDS011;3510;43.200;27.920;2023-11-22T02:33:10;5.13;;;4.70;;
6941;SDS011;3510;43.200;27.920;2023-11-22T02:35:37;8.93;;;4.60;;
6941;SDS011;3510;43.200;27.920;2023-11-22T02:38:04;4.93;;;3.73;;
6941;SDS011;3510;43.200;27.920;2023-11-22T02:40:32;5.03;;;4.03;;
6941;SDS011;3510;43.200;27.920;2023-11-22T02:42:59;4.43;;;4.10;;
6941;SDS011;3510;43.200;27.920;2023-11-22T02:45:30;3.43;;;3.10;;
6941;SDS011;3510;43.200;27.920;2023-11-22T02:47:57;3.63;;;2.93;;
6941;SDS011;3510;43.200;27.920;2023-11-22T02:50:24;3.77;;;3.47;;
6941;SDS011;3510;43.200;27.920;2023-11-22T02:52:52;5.37;;;4.93;;
6941;SDS011;3510;43.200;27.920;2023-11-22T02:55:18;7.23;;;5.73;;
6941;SDS011;3510;43.200;27.920;2023-11-22T02:57:47;6.20;;;5.63;;
6941;SDS011;3510;43.200;27.920;2023-11-22T03:00:13;5.70;;;5.23;;
6941;SDS011;3510;43.200;27.920;2023-11-22T03:02:41;7.67;;;5.37;;
6941;SDS011;3510;43.200;27.920;2023-11-22T03:05:07;5.40;;;4.77;;
6941;SDS011;3510;43.200;27.920;2023-11-22T03:07:35;9.60;;;4.60;;
6941;SDS011;3510;43.200;27.920;2023-11-22T03:10:01;4.37;;;3.90;;
6941;SDS011;3510;43.200;27.920;2023-11-22T03:12:28;5.20;;;4.70;;
6941;SDS011;3510;43.200;27.920;2023-11-22T03:14:56;6.23;;;4.73;;
6941;SDS011;3510;43.200;27.920;2023-11-22T03:17:26;5.53;;;4.50;;
6941;SDS011;3510;43.200;27.920;2023-11-22T03:19:53;6.23;;;4.50;;
6941;SDS011;3510;43.200;27.920;2023-11-22T03:22:21;4.43;;;4.13;;
6941;SDS011;3510;43.200;27.920;2023-11-22T03:24:48;4.80;;;4.40;;
6941;SDS011;3510;43.200;27.920;2023-11-22T03:27:15;5.30;;;4.00;;
6941;SDS011;3510;43.200;27.920;2023-11-22T03:29:42;4.03;;;3.73;;
6941;SDS011;3510;43.200;27.920;2023-11-22T03:32:10;3.37;;;3.17;;
6941;SDS011;3510;43.200;27.920;2023-11-22T03:34:37;3.83;;;3.23;;
6941;SDS011;3510;43.200;27.920;2023-11-22T03:37:04;3.90;;;3.00;;
6941;SDS011;3510;43.200;27.920;2023-11-22T03:39:31;4.53;;;3.57;;
6941;SDS011;3510;43.200;27.920;2023-11-22T03:41:57;4.67;;;4.37;;
6941;SDS011;3510;43.200;27.920;2023-11-22T03:44:24;7.30;;;6.23;;
6941;SDS011;3510;43.200;27.920;2023-11-22T03:46:51;12.57;;;7.37;;
6941;SDS011;3510;43.200;27.920;2023-11-22T03:49:18;7.47;;;6.00;;
6941;SDS011;3510;43.200;27.920;2023-11-22T03:51:46;11.67;;;7.30;;
6941;SDS011;3510;43.200;27.920;2023-11-22T03:54:13;12.10;;;7.20;;
6941;SDS011;3510;43.200;27.920;2023-11-22T03:56:40;11.07;;;9.73;;
6941;SDS011;3510;43.200;27.920;2023-11-22T03:59:07;9.87;;;8.73;;
6941;SDS011;3510;43.200;27.920;2023-11-22T04:01:34;11.53;;;9.97;;
6941;SDS011;3510;43.200;27.920;2023-11-22T04:04:00;15.93;;;10.73;;
6941;SDS011;3510;43.200;27.920;2023-11-22T04:06:29;15.10;;;10.23;;
6941;SDS011;3510;43.200;27.920;2023-11-22T04:08:58;20.50;;;11.13;;
6941;SDS011;3510;43.200;27.920;2023-11-22T04:11:25;15.23;;;10.67;;
6941;SDS011;3510;43.200;27.920;2023-11-22T04:13:53;16.43;;;10.50;;
6941;SDS011;3510;43.200;27.920;2023-11-22T04:16:20;17.10;;;11.80;;
6941;SDS011;3510;43.200;27.920;2023-11-22T04:18:46;12.97;;;10.27;;
6941;SDS011;3510;43.200;27.920;2023-11-22T04:21:13;15.90;;;8.73;;
6941;SDS011;3510;43.200;27.920;2023-11-22T04:23:41;11.67;;;10.47;;
6941;SDS011;3510;43.200;27.920;2023-11-22T04:26:08;13.60;;;10.33;;
6941;SDS011;3510;43.200;27.920;2023-11-22T04:28:35;9.57;;;8.23;;
6941;SDS011;3510;43.200;27.920;2023-11-22T04:31:02;16.93;;;9.07;;
6941;SDS011;3510;43.200;27.920;2023-11-22T04:33:29;13.90;;;8.83;;
6941;SDS011;3510;43.200;27.920;2023-11-22T04:35:56;13.57;;;9.10;;
6941;SDS011;3510;43.200;27.920;2023-11-22T04:38:23;9.23;;;8.00;;
6941;SDS011;3510;43.200;27.920;2023-11-22T04:40:51;11.63;;;10.10;;
6941;SDS011;3510;43.200;27.920;2023-11-22T04:43:18;14.03;;;9.37;;
6941;SDS011;3510;43.200;27.920;2023-11-22T04:45:44;15.10;;;9.93;;
6941;SDS011;3510;43.200;27.920;2023-11-22T04:48:11;11.37;;;8.63;;
6941;SDS011;3510;43.200;27.920;2023-11-22T04:50:40;15.33;;;11.50;;
6941;SDS011;3510;43.200;27.920;2023-11-22T04:53:06;11.73;;;10.63;;
6941;SDS011;3510;43.200;27.920;2023-11-22T04:55:33;12.20;;;9.47;;
6941;SDS011;3510;43.200;27.920;2023-11-22T04:58:01;11.73;;;10.50;;
6941;SDS011;3510;43.200;27.920;2023-11-22T05:00:28;20.00;;;11.90;;
6941;SDS011;3510;43.200;27.920;2023-11-22T05:02:54;14.53;;;11.37;;
6941;SDS011;3510;43.200;27.920;2023-11-22T05:05:21;15.07;;;11.07;;
6941;SDS011;3510;43.200;27.920;2023-11-22T05:07:48;16.50;;;9.97;;
6941;SDS011;3510;43.200;27.920;2023-11-22T05:10:15;12.87;;;9.13;;
6941;SDS011;3510;43.200;27.920;2023-11-22T05:12:42;20.40;;;13.57;;
6941;SDS011;3510;43.200;27.920;2023-11-22T05:15:11;20.93;;;13.37;;
6941;SDS011;3510;43.200;27.920;2023-11-22T05:17:39;15.80;;;10.77;;
6941;SDS011;3510;43.200;27.920;2023-11-22T05:20:06;16.70;;;12.33;;
6941;SDS011;3510;43.200;27.920;2023-11-22T05:22:34;16.33;;;11.73;;
6941;SDS011;3510;43.200;27.920;2023-11-22T05:25:01;17.43;;;12.03;;
6941;SDS011;3510;43.200;27.920;2023-11-22T05:27:28;17.03;;;11.27;;
6941;SDS011;3510;43.200;27.920;2023-11-22T05:29:56;21.97;;;17.33;;
6941;SDS011;3510;43.200;27.920;2023-11-22T05:32:24;23.83;;;14.93;;
6941;SDS011;3510;43.200;27.920;2023-11-22T05:34:51;21.40;;;15.30;;
6941;SDS011;3510;43.200;27.920;2023-11-22T05:37:18;21.90;;;15.27;;
6941;SDS011;3510;43.200;27.920;2023-11-22T05:39:45;22.37;;;17.13;;
6941;SDS011;3510;43.200;27.920;2023-11-22T05:42:12;19.97;;;15.20;;
6941;SDS011;3510;43.200;27.920;2023-11-22T05:44:38;23.67;;;15.30;;
6941;SDS011;3510;43.200;27.920;2023-11-22T05:47:05;18.83;;;14.20;;
6941;SDS011;3510;43.200;27.920;2023-11-22T05:49:34;28.53;;;21.40;;
6941;SDS011;3510;43.200;27.920;2023-11-22T05:52:00;22.83;;;16.63;;
6941;SDS011;3510;43.200;27.920;2023-11-22T05:54:27;27.23;;;16.70;;
6941;SDS011;3510;43.200;27.920;2023-11-22T05:56:55;32.87;;;18.87;;
6941;SDS011;3510;43.200;27.920;2023-11-22T05:59:21;24.27;;;17.00;;
6941;SDS011;3510;43.200;27.920;2023-11-22T06:01:49;25.23;;;17.57;;
6941;SDS011;3510;43.200;27.920;2023-11-22T06:04:15;27.40;;;14.23;;
6941;SDS011;3510;43.200;27.920;2023-11-22T06:06:43;18.10;;;13.07;;
6941;SDS011;3510;43.200;27.920;2023-11-22T06:09:11;18.13;;;12.63;;
6941;SDS011;3510;43.200;27.920;2023-11-22T06:11:39;16.10;;;13.27;;
6941;SDS011;3510;43.200;27.920;2023-11-22T06:14:06;14.20;;;11.90;;
6941;SDS011;3510;43.200;27.920;2023-11-22T06:16:33;16.70;;;11.30;;
6941;SDS011;3510;43.200;27.920;2023-11-22T06:19:00;17.87;;;12.67;;
6941;SDS011;3510;43.200;27.920;2023-11-22T06:21:26;31.23;;;18.93;;
6941;SDS011;3510;43.200;27.920;2023-11-22T06:23:54;26.00;;;20.37;;
6941;SDS011;3510;43.200;27.920;2023-11-22T06:26:23;29.13;;;19.93;;
6941;SDS011;3510;43.200;27.920;2023-11-22T06:28:50;30.20;;;20.83;;
6941;SDS011;3510;43.200;27.920;2023-11-22T06:31:16;32.90;;;21.83;;
6941;SDS011;3510;43.200;27.920;2023-11-22T06:33:43;26.93;;;19.07;;
6941;SDS011;3510;43.200;27.920;2023-11-22T06:36:10;20.00;;;15.67;;
6941;SDS011;3510;43.200;27.920;2023-11-22T06:38:39;22.00;;;15.67;;
6941;SDS011;3510;43.200;27.920;2023-11-22T06:41:07;23.77;;;17.60;;
6941;SDS011;3510;43.200;27.920;2023-11-22T06:43:34;26.60;;;20.00;;
6941;SDS011;3510;43.200;27.920;2023-11-22T06:46:01;22.20;;;17.17;;
6941;SDS011;3510;43.200;27.920;2023-11-22T06:48:30;26.07;;;14.90;;
6941;SDS011;3510;43.200;27.920;2023-11-22T06:50:57;19.80;;;15.33;;
6941;SDS011;3510;43.200;27.920;2023-11-22T06:53:24;23.40;;;16.60;;
6941;SDS011;3510;43.200;27.920;2023-11-22T06:55:50;21.97;;;16.67;;
6941;SDS011;3510;43.200;27.920;2023-11-22T06:58:19;23.23;;;15.97;;
6941;SDS011;3510;43.200;27.920;2023-11-22T07:00:45;23.53;;;16.97;;
6941;SDS011;3510;43.200;27.920;2023-11-22T07:03:12;31.70;;;17.97;;
6941;SDS011;3510;43.200;27.920;2023-11-22T07:05:39;31.87;;;17.93;;
6941;SDS011;3510;43.200;27.920;2023-11-22T07:08:06;31.17;;;19.50;;
6941;SDS011;3510;43.200;27.920;2023-11-22T07:10:33;33.40;;;21.07;;
6941;SDS011;3510;43.200;27.920;2023-11-22T07:13:00;40.77;;;27.23;;
6941;SDS011;3510;43.200;27.920;2023-11-22T07:15:29;47.70;;;27.27;;
6941;SDS011;3510;43.200;27.920;2023-11-22T07:17:56;31.97;;;23.43;;
6941;SDS011;3510;43.200;27.920;2023-11-22T07:20:22;47.37;;;20.37;;
6941;SDS011;3510;43.200;27.920;2023-11-22T07:22:49;33.87;;;22.20;;
6941;SDS011;3510;43.200;27.920;2023-11-22T07:25:20;35.37;;;22.10;;
6941;SDS011;3510;43.200;27.920;2023-11-22T07:27:50;29.43;;;19.00;;
6941;SDS011;3510;43.200;27.920;2023-11-22T07:30:18;28.93;;;20.20;;
6941;SDS011;3510;43.200;27.920;2023-11-22T07:32:49;31.53;;;20.57;;
6941;SDS011;3510;43.200;27.920;2023-11-22T07:35:18;39.77;;;20.33;;
6941;SDS011;3510;43.200;27.920;2023-11-22T07:37:46;27.70;;;17.57;;
6941;SDS011;3510;43.200;27.920;2023-11-22T07:40:13;32.63;;;17.83;;
6941;SDS011;3510;43.200;27.920;2023-11-22T07:42:40;30.37;;;17.40;;
6941;SDS011;3510;43.200;27.920;2023-11-22T07:45:07;34.47;;;22.30;;
6941;SDS011;3510;43.200;27.920;2023-11-22T07:47:36;35.73;;;24.13;;
6941;SDS011;3510;43.200;27.920;2023-11-22T07:50:08;30.70;;;18.77;;
6941;SDS011;3510;43.200;27.920;2023-11-22T07:52:35;25.27;;;17.57;;
6941;SDS011;3510;43.200;27.920;2023-11-22T07:55:03;23.23;;;16.50;;
6941;SDS011;3510;43.200;27.920;2023-11-22T07:57:30;27.00;;;18.20;;
6941;SDS011;3510;43.200;27.920;2023-11-22T07:59:57;32.13;;;17.93;;
6941;SDS011;3510;43.200;27.920;2023-11-22T08:02:26;32.97;;;17.80;;
6941;SDS011;3510;43.200;27.920;2023-11-22T08:04:53;26.67;;;17.23;;
6941;SDS011;3510;43.200;27.920;2023-11-22T08:07:21;22.07;;;15.17;;
6941;SDS011;3510;43.200;27.920;2023-11-22T08:09:48;27.43;;;15.77;;
6941;SDS011;3510;43.200;27.920;2023-11-22T08:12:15;35.47;;;23.17;;
6941;SDS011;3510;43.200;27.920;2023-11-22T08:14:42;41.57;;;26.57;;
6941;SDS011;3510;43.200;27.920;2023-11-22T08:17:09;37.50;;;26.23;;
6941;SDS011;3510;43.200;27.920;2023-11-22T08:19:37;28.65;;;17.48;;
6941;SDS011;3510;43.200;27.920;2023-11-22T08:22:05;25.43;;;16.70;;
6941;SDS011;3510;43.200;27.920;2023-11-22T08:24:33;22.75;;;14.77;;
6941;SDS011;3510;43.200;27.920;2023-11-22T08:26:59;22.83;;;12.10;;
6941;SDS011;3510;43.200;27.920;2023-11-22T08:29:26;14.00;;;11.77;;
6941;SDS011;3510;43.200;27.920;2023-11-22T08:31:53;21.07;;;12.30;;
6941;SDS011;3510;43.200;27.920;2023-11-22T08:34:20;23.73;;;11.90;;
6941;SDS011;3510;43.200;27.920;2023-11-22T08:36:47;24.87;;;12.43;;
6941;SDS011;3510;43.200;27.920;2023-11-22T08:39:13;20.63;;;12.93;;
6941;SDS011;3510;43.200;27.920;2023-11-22T08:41:42;15.97;;;11.90;;
6941;SDS011;3510;43.200;27.920;2023-11-22T08:44:08;18.05;;;11.57;;
6941;SDS011;3510;43.200;27.920;2023-11-22T08:46:35;23.03;;;12.37;;
6941;SDS011;3510;43.200;27.920;2023-11-22T08:49:02;21.92;;;11.60;;
6941;SDS011;3510;43.200;27.920;2023-11-22T08:51:29;14.18;;;12.25;;
6941;SDS011;3510;43.200;27.920;2023-11-22T08:53:55;13.53;;;10.60;;
6941;SDS011;3510;43.200;27.920;2023-11-22T08:56:25;17.33;;;11.70;;
6941;SDS011;3510;43.200;27.920;2023-11-22T08:58:53;18.85;;;10.85;;
6941;SDS011;3510;43.200;27.920;2023-11-22T09:01:20;17.88;;;10.30;;
6941;SDS011;3510;43.200;27.920;2023-11-22T09:03:46;18.67;;;10.20;;
6941;SDS011;3510;43.200;27.920;2023-11-22T09:06:15;20.08;;;10.93;;
6941;SDS011;3510;43.200;27.920;2023-11-22T09:08:42;14.30;;;10.65;;
6941;SDS011;3510;43.200;27.920;2023-11-22T09:11:11;13.70;;;7.88;;
6941;SDS011;3510;43.200;27.920;2023-11-22T09:13:38;13.35;;;7.53;;
6941;SDS011;3510;43.200;27.920;2023-11-22T09:16:06;11.27;;;8.40;;
6941;SDS011;3510;43.200;27.920;2023-11-22T09:18:33;9.10;;;8.20;;
6941;SDS011;3510;43.200;27.920;2023-11-22T09:21:00;11.30;;;8.05;;
6941;SDS011;3510;43.200;27.920;2023-11-22T09:23:27;13.05;;;8.75;;
6941;SDS011;3510;43.200;27.920;2023-11-22T09:25:55;16.58;;;7.82;;
6941;SDS011;3510;43.200;27.920;2023-11-22T09:28:21;14.23;;;8.57;;
6941;SDS011;3510;43.200;27.920;2023-11-22T09:30:48;9.43;;;6.85;;
6941;SDS011;3510;43.200;27.920;2023-11-22T09:33:17;9.02;;;6.65;;
6941;SDS011;3510;43.200;27.920;2023-11-22T09:35:44;8.82;;;5.65;;
6941;SDS011;3510;43.200;27.920;2023-11-22T09:38:13;6.00;;;5.20;;
6941;SDS011;3510;43.200;27.920;2023-11-22T09:40:41;5.70;;;5.00;;
6941;SDS011;3510;43.200;27.920;2023-11-22T09:43:09;6.90;;;5.75;;
6941;SDS011;3510;43.200;27.920;2023-11-22T09:45:36;11.40;;;6.18;;
6941;SDS011;3510;43.200;27.920;2023-11-22T09:48:05;6.38;;;5.22;;
6941;SDS011;3510;43.200;27.920;2023-11-22T09:50:46;8.27;;;5.65;;
6941;SDS011;3510;43.200;27.920;2023-11-22T09:53:22;5.45;;;5.05;;
6941;SDS011;3510;43.200;27.920;2023-11-22T09:55:57;8.73;;;5.88;;
6941;SDS011;3510;43.200;27.920;2023-11-22T09:58:24;7.53;;;5.22;;
6941;SDS011;3510;43.200;27.920;2023-11-22T10:00:55;16.55;;;6.45;;
6941;SDS011;3510;43.200;27.920;2023-11-22T10:03:23;6.88;;;5.53;;
6941;SDS011;3510;43.200;27.920;2023-11-22T10:05:55;18.45;;;7.05;;
6941;SDS011;3510;43.200;27.920;2023-11-22T10:08:24;10.00;;;6.65;;
6941;SDS011;3510;43.200;27.920;2023-11-22T10:10:50;7.00;;;6.38;;
6941;SDS011;3510;43.200;27.920;2023-11-22T10:13:19;9.40;;;8.02;;
6941;SDS011;3510;43.200;27.920;2023-11-22T10:15:46;14.50;;;9.77;;
6941;SDS011;3510;43.200;27.920;2023-11-22T10:18:14;13.88;;;10.10;;
6941;SDS011;3510;43.200;27.920;2023-11-22T10:20:43;14.55;;;10.35;;
6941;SDS011;3510;43.200;27.920;2023-11-22T10:23:13;19.90;;;11.77;;
6941;SDS011;3510;43.200;27.920;2023-11-22T10:25:43;11.45;;;9.63;;
6941;SDS011;3510;43.200;27.920;2023-11-22T10:28:13;13.25;;;10.27;;
6941;SDS011;3510;43.200;27.920;2023-11-22T10:30:41;10.90;;;8.07;;
6941;SDS011;3510;43.200;27.920;2023-11-22T10:33:09;10.20;;;8.15;;
6941;SDS011;3510;43.200;27.920;2023-11-22T10:35:39;13.82;;;8.82;;
6941;SDS011;3510;43.200;27.920;2023-11-22T10:38:08;8.82;;;7.32;;
6941;SDS011;3510;43.200;27.920;2023-11-22T10:40:37;9.82;;;7.18;;
6941;SDS011;3510;43.200;27.920;2023-11-22T10:43:04;8.80;;;8.05;;
6941;SDS011;3510;43.200;27.920;2023-11-22T10:45:35;9.23;;;7.72;;
6941;SDS011;3510;43.200;27.920;2023-11-22T10:48:04;13.02;;;7.63;;
6941;SDS011;3510;43.200;27.920;2023-11-22T10:50:31;8.80;;;7.80;;
6941;SDS011;3510;43.200;27.920;2023-11-22T10:52:58;15.95;;;8.82;;
6941;SDS011;3510;43.200;27.920;2023-11-22T10:55:28;11.73;;;5.97;;
6941;SDS011;3510;43.200;27.920;2023-11-22T10:58:00;6.20;;;5.55;;
6941;SDS011;3510;43.200;27.920;2023-11-22T11:00:29;8.18;;;6.93;;
6941;SDS011;3510;43.200;27.920;2023-11-22T11:02:59;6.60;;;5.90;;
6941;SDS011;3510;43.200;27.920;2023-11-22T11:05:30;7.63;;;5.80;;
6941;SDS011;3510;43.200;27.920;2023-11-22T11:07:59;6.40;;;4.60;;
6941;SDS011;3510;43.200;27.920;2023-11-22T11:10:31;5.40;;;4.53;;
6941;SDS011;3510;43.200;27.920;2023-11-22T11:13:00;6.00;;;4.20;;
6941;SDS011;3510;43.200;27.920;2023-11-22T11:15:27;4.97;;;3.88;;
6941;SDS011;3510;43.200;27.920;2023-11-22T11:17:54;4.53;;;4.18;;
6941;SDS011;3510;43.200;27.920;2023-11-22T11:20:22;3.78;;;2.47;;
6941;SDS011;3510;43.200;27.920;2023-11-22T11:22:49;4.60;;;3.05;;
6941;SDS011;3510;43.200;27.920;2023-11-22T11:25:17;3.50;;;3.20;;
6941;SDS011;3510;43.200;27.920;2023-11-22T11:27:44;4.28;;;2.65;;
6941;SDS011;3510;43.200;27.920;2023-11-22T11:33:13;5.78;;;3.20;;
6941;SDS011;3510;43.200;27.920;2023-11-22T11:35:42;3.40;;;3.20;;
6941;SDS011;3510;43.200;27.920;2023-11-22T11:38:12;2.60;;;2.40;;
6941;SDS011;3510;43.200;27.920;2023-11-22T11:40:39;2.83;;;2.63;;
6941;SDS011;3510;43.200;27.920;2023-11-22T11:43:07;4.17;;;2.63;;
6941;SDS011;3510;43.200;27.920;2023-11-22T11:45:36;3.33;;;3.07;;
6941;SDS011;3510;43.200;27.920;2023-11-22T11:48:08;5.57;;;3.57;;
6941;SDS011;3510;43.200;27.920;2023-11-22T11:50:35;2.53;;;2.43;;
6941;SDS011;3510;43.200;27.920;2023-11-22T11:53:01;6.17;;;2.67;;
6941;SDS011;3510;43.200;27.920;2023-11-22T11:55:29;3.80;;;3.40;;
6941;SDS011;3510;43.200;27.920;2023-11-22T11:57:56;4.63;;;3.65;;
6941;SDS011;3510;43.200;27.920;2023-11-22T12:00:30;3.40;;;3.20;;
6941;SDS011;3510;43.200;27.920;2023-11-22T12:02:57;12.57;;;5.93;;
6941;SDS011;3510;43.200;27.920;2023-11-22T12:05:25;3.27;;;2.07;;
6941;SDS011;3510;43.200;27.920;2023-11-22T12:07:53;4.47;;;2.65;;
6941;SDS011;3510;43.200;27.920;2023-11-22T12:10:19;4.23;;;2.63;;
6941;SDS011;3510;43.200;27.920;2023-11-22T12:12:47;2.23;;;2.10;;
6941;SDS011;3510;43.200;27.920;2023-11-22T12:15:13;2.20;;;2.00;;
6941;SDS011;3510;43.200;27.920;2023-11-22T12:17:40;2.42;;;2.05;;
6941;SDS011;3510;43.200;27.920;2023-11-22T12:20:09;1.10;;;1.10;;
6941;SDS011;3510;43.200;27.920;2023-11-22T12:22:38;1.67;;;1.30;;
6941;SDS011;3510;43.200;27.920;2023-11-22T12:25:06;2.93;;;1.70;;
6941;SDS011;3510;43.200;27.920;2023-11-22T12:27:34;2.07;;;1.67;;
6941;SDS011;3510;43.200;27.920;2023-11-22T12:30:05;1.93;;;1.63;;
6941;SDS011;3510;43.200;27.920;2023-11-22T12:32:33;4.17;;;2.17;;
6941;SDS011;3510;43.200;27.920;2023-11-22T12:35:00;3.33;;;1.60;;
6941;SDS011;3510;43.200;27.920;2023-11-22T12:37:29;1.50;;;1.40;;
6941;SDS011;3510;43.200;27.920;2023-11-22T12:39:57;1.83;;;1.47;;
6941;SDS011;3510;43.200;27.920;2023-11-22T12:42:24;1.97;;;1.73;;
6941;SDS011;3510;43.200;27.920;2023-11-22T12:44:53;1.83;;;1.73;;
6941;SDS011;3510;43.200;27.920;2023-11-22T12:50:01;3.20;;;2.00;;
6941;SDS011;3510;43.200;27.920;2023-11-22T12:52:29;1.57;;;1.47;;
6941;SDS011;3510;43.200;27.920;2023-11-22T12:54:58;2.47;;;1.50;;
6941;SDS011;3510;43.200;27.920;2023-11-22T12:57:25;2.30;;;1.53;;
6941;SDS011;3510;43.200;27.920;2023-11-22T12:59:52;3.00;;;2.37;;
6941;SDS011;3510;43.200;27.920;2023-11-22T13:02:19;3.60;;;2.80;;
6941;SDS011;3510;43.200;27.920;2023-11-22T13:04:45;4.70;;;3.33;;
6941;SDS011;3510;43.200;27.920;2023-11-22T13:07:12;2.50;;;2.40;;
6941;SDS011;3510;43.200;27.920;2023-11-22T13:09:39;4.23;;;2.87;;
6941;SDS011;3510;43.200;27.920;2023-11-22T13:12:07;6.17;;;2.90;;
6941;SDS011;3510;43.200;27.920;2023-11-22T13:14:34;2.73;;;2.50;;
6941;SDS011;3510;43.200;27.920;2023-11-22T13:17:03;4.70;;;4.23;;
6941;SDS011;3510;43.200;27.920;2023-11-22T13:19:32;3.63;;;2.73;;
6941;SDS011;3510;43.200;27.920;2023-11-22T13:21:58;3.93;;;2.77;;
6941;SDS011;3510;43.200;27.920;2023-11-22T13:24:25;2.63;;;2.50;;
6941;SDS011;3510;43.200;27.920;2023-11-22T13:26:51;3.17;;;2.97;;
6941;SDS011;3510;43.200;27.920;2023-11-22T13:29:20;2.20;;;2.10;;
6941;SDS011;3510;43.200;27.920;2023-11-22T13:31:46;4.03;;;2.47;;
6941;SDS011;3510;43.200;27.920;2023-11-22T13:34:13;4.63;;;2.40;;
6941;SDS011;3510;43.200;27.920;2023-11-22T13:36:39;1.90;;;1.80;;
6941;SDS011;3510;43.200;27.920;2023-11-22T13:39:06;2.40;;;2.30;;
6941;SDS011;3510;43.200;27.920;2023-11-22T13:41:33;3.87;;;2.37;;
6941;SDS011;3510;43.200;27.920;2023-11-22T13:44:00;2.10;;;2.00;;
6941;SDS011;3510;43.200;27.920;2023-11-22T13:46:29;3.07;;;2.87;;
6941;SDS011;3510;43.200;27.920;2023-11-22T13:48:55;1.70;;;1.60;;
6941;SDS011;3510;43.200;27.920;2023-11-22T13:51:23;2.17;;;2.07;;
6941;SDS011;3510;43.200;27.920;2023-11-22T13:53:50;3.90;;;2.20;;
6941;SDS011;3510;43.200;27.920;2023-11-22T13:56:18;2.20;;;2.07;;
6941;SDS011;3510;43.200;27.920;2023-11-22T13:58:45;2.10;;;2.00;;
6941;SDS011;3510;43.200;27.920;2023-11-22T14:01:12;2.97;;;2.00;;
6941;SDS011;3510;43.200;27.920;2023-11-22T14:03:47;6.70;;;2.17;;
6941;SDS011;3510;43.200;27.920;2023-11-22T14:06:14;6.13;;;1.87;;
6941;SDS011;3510;43.200;27.920;2023-11-22T14:08:42;4.43;;;2.47;;
6941;SDS011;3510;43.200;27.920;2023-11-22T14:11:09;2.17;;;2.07;;
6941;SDS011;3510;43.200;27.920;2023-11-22T14:13:37;2.43;;;2.23;;
6941;SDS011;3510;43.200;27.920;2023-11-22T14:16:05;2.93;;;2.40;;
6941;SDS011;3510;43.200;27.920;2023-11-22T14:18:33;2.33;;;1.67;;
6941;SDS011;3510;43.200;27.920;2023-11-22T14:21:01;2.93;;;2.07;;
6941;SDS011;3510;43.200;27.920;2023-11-22T14:23:29;2.37;;;2.10;;
6941;SDS011;3510;43.200;27.920;2023-11-22T14:25:56;3.27;;;3.07;;
6941;SDS011;3510;43.200;27.920;2023-11-22T14:28:22;3.03;;;2.83;;
6941;SDS011;3510;43.200;27.920;2023-11-22T14:30:49;2.97;;;2.77;;
6941;SDS011;3510;43.200;27.920;2023-11-22T14:33:19;2.70;;;2.50;;
6941;SDS011;3510;43.200;27.920;2023-11-22T14:35:46;1.97;;;1.87;;
6941;SDS011;3510;43.200;27.920;2023-11-22T14:38:14;3.33;;;3.13;;
6941;SDS011;3510;43.200;27.920;2023-11-22T14:40:42;3.20;;;3.00;;
6941;SDS011;3510;43.200;27.920;2023-11-22T14:43:09;3.40;;;3.20;;
6941;SDS011;3510;43.200;27.920;2023-11-22T14:45:36;2.07;;;1.97;;
6941;SDS011;3510;43.200;27.920;2023-11-22T14:48:04;2.47;;;1.40;;
6941;SDS011;3510;43.200;27.920;2023-11-22T14:50:32;1.90;;;1.80;;
6941;SDS011;3510;43.200;27.920;2023-11-22T14:52:58;1.87;;;1.77;;
6941;SDS011;3510;43.200;27.920;2023-11-22T14:55:26;2.30;;;1.87;;
6941;SDS011;3510;43.200;27.920;2023-11-22T14:57:53;1.30;;;1.30;;